createdAt,value
2022-12-11T00:03:53.952Z,18.75
2022-12-11T00:07:00.205Z,19.30
2022-12-11T00:10:38.033Z,19.52
2022-12-11T00:15:37.981Z,17.45
2022-12-11T00:16:56.759Z,17.27
2022-12-11T00:20:24.167Z,18.17
2022-12-11T00:22:58.206Z,18.17
2022-12-11T00:26:07.733Z,17.15
2022-12-11T00:29:47.260Z,16.92
2022-12-11T00:34:03.058Z,17.55
2022-12-11T00:36:34.204Z,21.30
2022-12-11T00:39:48.730Z,20.65
2022-12-11T00:46:14.287Z,22.98
2022-12-11T00:49:51.904Z,24.17
2022-12-11T00:52:58.944Z,21.40
2022-12-11T00:56:07.577Z,25.42
2022-12-11T00:59:01.614Z,23.70
2022-12-11T01:02:45.222Z,25.83
2022-12-11T01:06:05.989Z,19.83
2022-12-11T01:13:57.140Z,18.00
2022-12-11T01:16:49.049Z,19.17
2022-12-11T01:20:07.871Z,18.38
2022-12-11T01:26:58.062Z,19.25
2022-12-11T01:30:29.709Z,17.70
2022-12-11T01:37:10.206Z,18.27
2022-12-11T01:40:21.420Z,16.73
2022-12-11T01:43:08.869Z,18.30
2022-12-11T01:45:57.263Z,19.75
2022-12-11T01:52:03.196Z,17.85
2022-12-11T01:54:50.059Z,20.00
2022-12-11T01:57:52.078Z,18.30
2022-12-11T02:00:52.481Z,18.85
2022-12-11T02:04:13.139Z,19.75
2022-12-11T02:07:01.834Z,19.98
2022-12-11T02:09:42.050Z,18.70
2022-12-11T02:12:34.634Z,18.80
2022-12-11T02:15:26.492Z,18.58
2022-12-11T02:18:06.582Z,19.23
2022-12-11T02:21:10.138Z,18.92
2022-12-11T02:24:15.430Z,19.52
2022-12-11T02:27:19.144Z,21.55
2022-12-11T02:30:39.735Z,24.52
2022-12-11T02:33:27.219Z,25.73
2022-12-11T02:36:16.230Z,26.83
2022-12-11T02:39:42.907Z,23.88
2022-12-11T02:49:47.757Z,20.17
2022-12-11T03:17:12.634Z,20.63
2022-12-11T03:19:47.642Z,18.30
2022-12-11T03:22:58.840Z,19.08
2022-12-11T03:28:29.177Z,17.42
2022-12-11T03:30:57.279Z,17.00
2022-12-11T03:33:29.646Z,17.20
2022-12-11T03:36:01.569Z,15.32
2022-12-11T03:38:37.358Z,15.32
2022-12-11T03:41:07.253Z,14.30
2022-12-11T03:43:35.710Z,15.05
2022-12-11T03:46:03.347Z,14.85
2022-12-11T03:48:38.119Z,14.32
2022-12-11T03:51:06.934Z,14.25
2022-12-11T03:53:38.442Z,14.23
2022-12-11T03:56:11.042Z,15.50
2022-12-11T03:58:38.788Z,14.57
2022-12-11T04:01:10.583Z,14.75
2022-12-11T04:03:39.663Z,16.15
2022-12-11T04:06:06.900Z,15.88
2022-12-11T04:08:33.845Z,17.98
2022-12-11T04:11:24.691Z,16.50
2022-12-11T04:14:11.457Z,19.10
2022-12-11T04:16:38.499Z,17.45
2022-12-11T04:19:25.864Z,18.70
2022-12-11T04:22:12.523Z,18.15
2022-12-11T04:24:40.707Z,19.15
2022-12-11T04:27:07.794Z,18.30
2022-12-11T04:29:34.902Z,19.90
2022-12-11T04:32:04.621Z,18.17
2022-12-11T04:34:33.951Z,16.98
2022-12-11T04:37:00.996Z,18.33
2022-12-11T04:39:28.053Z,17.88
2022-12-11T04:41:54.885Z,19.65
2022-12-11T04:44:23.092Z,19.52
2022-12-11T04:46:50.053Z,16.65
2022-12-11T04:49:17.029Z,18.85
2022-12-11T04:51:44.007Z,19.20
2022-12-11T04:54:10.801Z,18.73
2022-12-11T04:56:40.128Z,21.08
2022-12-11T04:59:06.969Z,18.08
2022-12-11T05:01:36.301Z,19.38
2022-12-11T05:04:03.233Z,19.00
2022-12-11T05:06:30.135Z,18.48
2022-12-11T05:08:57.034Z,18.85
2022-12-11T05:11:26.614Z,18.35
2022-12-11T05:13:53.540Z,17.58
2022-12-11T05:16:20.517Z,17.80
2022-12-11T05:18:50.189Z,17.48
2022-12-11T05:21:17.360Z,19.52
2022-12-11T05:23:44.644Z,18.42
2022-12-11T05:26:17.696Z,17.70
2022-12-11T05:28:45.481Z,16.58
2022-12-11T05:31:17.157Z,19.40
2022-12-11T05:33:45.308Z,18.20
2022-12-11T05:36:27.890Z,18.08
2022-12-11T05:38:55.202Z,18.33
2022-12-11T05:41:24.676Z,19.48
2022-12-11T05:43:52.213Z,18.38
2022-12-11T05:46:24.087Z,17.45
2022-12-11T05:48:58.206Z,17.70
2022-12-11T05:51:25.352Z,19.45
2022-12-11T05:54:00.515Z,19.77
2022-12-11T05:56:30.719Z,19.80
2022-12-11T05:58:59.130Z,20.17
2022-12-11T06:01:30.531Z,19.20
2022-12-11T06:03:59.675Z,20.35
2022-12-11T06:06:30.785Z,20.77
2022-12-11T06:08:59.143Z,19.00
2022-12-11T06:11:29.002Z,20.10
2022-12-11T06:13:56.568Z,19.55
2022-12-11T06:16:26.212Z,18.75
2022-12-11T06:18:58.406Z,20.67
2022-12-11T06:21:31.576Z,20.33
2022-12-11T06:24:05.423Z,21.58
2022-12-11T06:26:33.055Z,20.05
2022-12-11T06:29:07.562Z,19.42
2022-12-11T06:31:36.164Z,20.67
2022-12-11T06:34:03.284Z,21.00
2022-12-11T06:36:32.644Z,19.65
2022-12-11T06:39:03.032Z,19.75
2022-12-11T06:41:30.382Z,20.73
2022-12-11T06:43:59.742Z,19.77
2022-12-11T06:46:29.863Z,19.65
2022-12-11T06:48:57.009Z,19.55
2022-12-11T06:51:26.463Z,20.05
2022-12-11T06:53:55.531Z,18.67
2022-12-11T06:56:23.371Z,20.08
2022-12-11T06:59:02.877Z,18.95
2022-12-11T07:01:36.205Z,17.88
2022-12-11T07:04:05.527Z,18.27
2022-12-11T07:06:40.006Z,16.70
2022-12-11T07:09:08.879Z,18.23
2022-12-11T07:11:36.023Z,16.63
2022-12-11T07:14:03.491Z,17.30
2022-12-11T07:16:30.989Z,16.63
2022-12-11T07:18:58.088Z,18.30
2022-12-11T07:21:25.236Z,19.00
2022-12-11T07:23:54.608Z,17.00
2022-12-11T07:26:32.464Z,19.38
2022-12-11T07:29:00.382Z,17.13
2022-12-11T07:31:34.287Z,18.33
2022-12-11T07:34:06.939Z,17.02
2022-12-11T07:36:35.088Z,17.37
2022-12-11T07:39:03.556Z,17.10
2022-12-11T07:41:31.841Z,16.42
2022-12-11T07:44:01.378Z,18.58
2022-12-11T07:46:33.054Z,18.20
2022-12-11T07:49:01.069Z,17.83
2022-12-11T07:51:36.216Z,18.00
2022-12-11T07:54:18.237Z,17.45
2022-12-11T07:56:53.530Z,15.82
2022-12-11T07:59:23.626Z,16.95
2022-12-11T08:01:55.160Z,17.92
2022-12-11T08:04:26.074Z,16.88
2022-12-11T08:06:59.245Z,18.52
2022-12-11T08:09:29.167Z,17.15
2022-12-11T08:12:01.290Z,17.13
2022-12-11T08:14:28.424Z,17.38
2022-12-11T08:17:03.163Z,17.52
2022-12-11T08:19:32.510Z,18.05
2022-12-11T08:22:02.582Z,16.70
2022-12-11T08:24:32.593Z,16.75
2022-12-11T08:27:02.102Z,16.33
2022-12-11T08:29:28.983Z,15.43
2022-12-11T08:31:58.651Z,17.02
2022-12-11T08:34:26.836Z,16.30
2022-12-11T08:36:55.889Z,18.13
2022-12-11T08:39:22.977Z,17.77
2022-12-11T08:42:03.756Z,17.13
2022-12-11T08:44:43.413Z,17.52
2022-12-11T08:47:15.564Z,16.85
2022-12-11T08:49:45.018Z,17.08
2022-12-11T08:52:17.435Z,17.33
2022-12-11T08:54:54.556Z,18.52
2022-12-11T08:57:28.327Z,16.45
2022-12-11T08:59:55.314Z,16.38
2022-12-11T09:02:28.034Z,18.58
2022-12-11T09:05:00.006Z,16.38
2022-12-11T09:07:32.519Z,16.02
2022-12-11T09:10:00.085Z,16.83
2022-12-11T09:12:29.688Z,17.27
2022-12-11T09:14:57.096Z,15.95
2022-12-11T09:17:32.564Z,18.23
2022-12-11T09:20:03.322Z,15.85
2022-12-11T09:22:50.832Z,14.82
2022-12-11T09:25:26.708Z,18.67
2022-12-11T09:28:02.336Z,16.25
2022-12-11T09:30:34.194Z,15.68
2022-12-11T09:33:01.435Z,17.08
2022-12-11T09:35:38.397Z,17.77
2022-12-11T09:38:14.020Z,16.92
2022-12-11T09:40:46.399Z,16.05
2022-12-11T09:43:37.895Z,17.70
2022-12-11T09:46:10.719Z,15.65
2022-12-11T09:48:46.794Z,13.93
2022-12-11T09:51:22.542Z,14.52
2022-12-11T09:53:50.522Z,13.95
2022-12-11T09:56:40.683Z,13.73
2022-12-11T09:59:32.353Z,13.85
2022-12-11T10:02:29.324Z,12.82
2022-12-11T10:05:23.719Z,13.10
2022-12-11T10:08:24.168Z,12.00
2022-12-11T10:11:22.843Z,11.53
2022-12-11T10:14:06.484Z,12.80
2022-12-11T10:16:44.106Z,12.77
2022-12-11T10:19:30.403Z,10.93
2022-12-11T10:22:18.062Z,12.10
2022-12-11T10:25:12.355Z,12.32
2022-12-11T10:27:43.436Z,12.13
2022-12-11T10:30:24.863Z,12.82
2022-12-11T10:33:22.131Z,12.88
2022-12-11T10:35:59.168Z,13.90
2022-12-11T10:38:48.919Z,12.05
2022-12-11T10:41:33.660Z,12.10
2022-12-11T10:44:01.980Z,13.80
2022-12-11T10:46:30.114Z,12.90
2022-12-11T10:49:01.130Z,11.70
2022-12-11T10:51:39.875Z,12.13
2022-12-11T10:54:34.850Z,12.48
2022-12-11T10:57:10.971Z,13.38
2022-12-11T10:59:50.509Z,12.85
2022-12-11T11:02:37.877Z,12.75
2022-12-11T11:05:49.121Z,12.00
2022-12-11T11:08:32.230Z,12.07
2022-12-11T11:11:05.717Z,13.18
2022-12-11T11:13:36.612Z,13.50
2022-12-11T11:16:15.647Z,13.00
2022-12-11T11:19:00.503Z,13.23
2022-12-11T11:21:30.155Z,13.15
2022-12-11T11:24:02.346Z,12.73
2022-12-11T11:27:04.471Z,11.93
2022-12-11T11:29:53.097Z,12.52
2022-12-11T11:32:32.470Z,11.88
2022-12-11T11:35:17.212Z,13.30
2022-12-11T11:37:56.464Z,13.15
2022-12-11T11:40:31.209Z,13.35
2022-12-11T11:43:34.400Z,13.15
2022-12-11T11:46:11.197Z,12.65
2022-12-11T11:48:48.595Z,13.70
2022-12-11T11:51:44.747Z,12.27
2022-12-11T11:54:45.278Z,12.45
2022-12-11T11:57:41.931Z,11.90
2022-12-11T12:00:37.407Z,12.30
2022-12-11T12:03:19.993Z,12.93
2022-12-11T12:06:10.889Z,13.15
2022-12-11T12:08:58.854Z,12.45
2022-12-11T12:11:52.362Z,10.98
2022-12-11T12:14:51.154Z,11.27
2022-12-11T12:17:36.442Z,10.88
2022-12-11T12:20:30.096Z,12.32
2022-12-11T12:23:27.400Z,11.18
2022-12-11T12:26:12.735Z,10.45
2022-12-11T12:29:16.192Z,12.07
2022-12-11T12:32:20.015Z,11.90
2022-12-11T12:35:25.586Z,11.63
2022-12-11T12:38:12.013Z,10.80
2022-12-11T12:41:21.344Z,9.43
2022-12-11T12:44:16.529Z,11.70
2022-12-11T12:46:57.192Z,10.68
2022-12-11T12:49:46.161Z,9.10
2022-12-11T12:52:35.941Z,10.35
2022-12-11T12:55:29.080Z,9.43
2022-12-11T12:58:24.026Z,10.30
2022-12-11T13:01:20.572Z,9.45
2022-12-11T13:04:54.981Z,9.23
2022-12-11T13:07:34.035Z,9.45
2022-12-11T13:10:04.585Z,9.30
2022-12-11T13:12:47.457Z,8.82
2022-12-11T13:15:33.283Z,8.15
2022-12-11T13:18:12.916Z,8.60
2022-12-11T13:20:48.309Z,9.30
2022-12-11T13:23:37.538Z,8.93
2022-12-11T13:26:12.895Z,8.57
2022-12-11T13:28:42.916Z,9.77
2022-12-11T13:31:18.496Z,11.03
2022-12-11T13:34:03.116Z,9.32
2022-12-11T13:36:40.229Z,9.35
2022-12-11T13:39:32.468Z,9.65
2022-12-11T13:42:07.724Z,9.93
2022-12-11T13:44:43.361Z,8.75
2022-12-11T13:47:27.008Z,8.93
2022-12-11T13:50:22.157Z,9.68
2022-12-11T13:53:03.525Z,10.57
2022-12-11T13:55:42.552Z,8.63
2022-12-11T13:58:43.682Z,10.13
2022-12-11T14:01:26.293Z,10.20
2022-12-11T14:04:50.120Z,10.30
2022-12-11T14:07:31.610Z,8.73
2022-12-11T14:10:10.118Z,10.48
2022-12-11T14:12:37.890Z,9.23
2022-12-11T14:15:20.599Z,10.63
2022-12-11T14:21:09.705Z,9.20
2022-12-11T14:24:14.087Z,9.93
2022-12-11T14:26:57.318Z,9.38
2022-12-11T14:29:39.070Z,9.60
2022-12-11T14:32:29.646Z,9.23
2022-12-11T14:35:11.936Z,7.85
2022-12-11T14:37:52.658Z,7.45
2022-12-11T14:40:30.913Z,6.55
2022-12-11T14:43:35.659Z,6.70
2022-12-11T14:46:18.869Z,6.20
2022-12-11T14:49:01.549Z,6.22
2022-12-11T14:51:46.720Z,6.43
2022-12-11T14:54:44.624Z,6.82
2022-12-11T14:58:17.108Z,6.50
2022-12-11T15:01:30.623Z,6.28
2022-12-11T15:04:35.354Z,6.35
2022-12-11T15:08:15.753Z,6.30
2022-12-11T15:11:03.544Z,6.28
2022-12-11T15:13:39.586Z,6.53
2022-12-11T15:16:14.627Z,7.53
2022-12-11T15:19:17.601Z,6.65
2022-12-11T15:22:11.669Z,7.78
2022-12-11T15:24:49.050Z,8.80
2022-12-11T15:27:51.061Z,8.20
2022-12-11T15:30:17.892Z,9.77
2022-12-11T15:32:46.999Z,8.68
2022-12-11T15:36:02.125Z,8.85
2022-12-11T15:38:36.182Z,8.70
2022-12-11T15:41:06.896Z,9.95
2022-12-11T15:43:42.546Z,10.52
2022-12-11T15:46:39.510Z,9.90
2022-12-11T15:49:13.492Z,9.48
2022-12-11T15:51:43.347Z,10.07
2022-12-11T15:54:11.174Z,9.60
2022-12-11T15:56:38.325Z,9.55
2022-12-11T15:59:13.250Z,9.55
2022-12-11T16:01:46.007Z,9.35
2022-12-11T16:04:17.175Z,11.00
2022-12-11T16:09:16.462Z,8.95
2022-12-11T16:11:44.373Z,10.80
2022-12-11T16:14:12.317Z,10.50
2022-12-11T16:16:41.991Z,11.27
2022-12-11T16:19:15.343Z,9.95
2022-12-11T16:22:07.617Z,10.68
2022-12-11T16:29:05.532Z,11.30
2022-12-11T16:31:50.259Z,11.57
2022-12-11T16:34:22.685Z,12.02
2022-12-11T16:36:53.675Z,12.40
2022-12-11T16:42:40.031Z,11.55
2022-12-11T16:45:43.596Z,12.50
2022-12-11T16:48:48.468Z,11.60
2022-12-11T16:51:22.828Z,13.27
2022-12-11T16:54:09.071Z,12.02
2022-12-11T16:56:37.957Z,12.10
2022-12-11T16:59:07.504Z,12.60
2022-12-11T17:01:36.701Z,13.63
2022-12-11T17:04:03.470Z,12.48
2022-12-11T17:06:30.181Z,13.05
2022-12-11T17:08:57.064Z,14.90
2022-12-11T17:11:28.502Z,12.32
2022-12-11T17:13:59.208Z,13.35
2022-12-11T17:16:30.631Z,13.70
2022-12-11T17:19:02.635Z,11.07
2022-12-11T17:21:38.082Z,12.50
2022-12-11T17:24:05.207Z,13.27
2022-12-11T17:26:37.179Z,12.02
2022-12-11T17:29:07.022Z,13.32
2022-12-11T17:31:34.170Z,11.75
2022-12-11T17:34:06.647Z,12.88
2022-12-11T17:36:33.704Z,14.07
2022-12-11T17:39:01.123Z,13.45
2022-12-11T17:41:28.038Z,13.70
2022-12-11T17:43:55.684Z,13.00
2022-12-11T17:46:22.716Z,15.38
2022-12-11T17:48:49.623Z,15.55
2022-12-11T17:51:21.937Z,14.60
2022-12-11T17:53:51.212Z,13.93
2022-12-11T17:56:21.817Z,13.77
2022-12-11T17:58:51.257Z,13.93
2022-12-11T18:01:18.867Z,14.75
2022-12-11T18:03:46.979Z,14.57
2022-12-11T18:06:16.179Z,14.77
2022-12-11T18:08:44.400Z,16.08
2022-12-11T18:11:24.033Z,14.70
2022-12-11T18:13:53.565Z,14.60
2022-12-11T18:16:32.720Z,16.52
2022-12-11T18:18:59.504Z,15.63
2022-12-11T18:21:29.977Z,16.38
2022-12-11T18:23:56.749Z,15.48
2022-12-11T18:26:26.287Z,16.30
2022-12-11T18:29:08.639Z,16.55
2022-12-11T18:31:41.962Z,17.65
2022-12-11T18:34:10.598Z,16.17
2022-12-11T18:36:37.448Z,17.52
2022-12-11T18:39:06.743Z,17.95
2022-12-11T18:41:40.901Z,17.42
2022-12-11T18:44:10.397Z,18.40
2022-12-11T18:46:40.658Z,20.70
2022-12-11T18:49:13.062Z,19.45
2022-12-11T18:51:42.822Z,21.52
2022-12-11T18:54:10.268Z,21.35
2022-12-11T18:56:42.709Z,19.65
2022-12-11T18:59:18.340Z,19.88
2022-12-11T19:01:50.869Z,19.27
2022-12-11T19:04:26.166Z,19.38
2022-12-11T19:06:57.903Z,21.95
2022-12-11T19:09:24.887Z,20.75
2022-12-11T19:11:52.054Z,19.75
2022-12-11T19:14:21.464Z,20.13
2022-12-11T19:17:00.156Z,20.33
2022-12-11T19:19:29.397Z,20.25
2022-12-11T19:21:56.255Z,20.88
2022-12-11T19:24:24.281Z,20.83
2022-12-11T19:26:51.441Z,20.45
2022-12-11T19:29:35.548Z,20.92
2022-12-11T19:32:09.868Z,20.95
2022-12-11T19:34:38.572Z,19.90
2022-12-11T19:37:05.657Z,18.23
2022-12-11T19:39:33.157Z,22.15
2022-12-11T19:42:00.203Z,20.92
2022-12-11T19:44:27.301Z,21.02
2022-12-11T19:46:56.753Z,20.55
2022-12-11T19:49:23.943Z,22.55
2022-12-11T19:51:51.392Z,23.98
2022-12-11T19:54:18.445Z,22.45
2022-12-11T19:56:46.580Z,23.08
2022-12-11T19:59:17.924Z,22.27
2022-12-11T20:01:48.259Z,21.05
2022-12-11T20:04:17.241Z,20.38
2022-12-11T20:06:46.770Z,20.75
2022-12-11T20:09:17.056Z,19.35
2022-12-11T20:11:45.331Z,22.15
2022-12-11T20:14:23.936Z,20.58
2022-12-11T20:17:12.123Z,22.73
2022-12-11T20:19:43.110Z,20.33
2022-12-11T20:22:10.296Z,21.05
2022-12-11T20:24:37.740Z,22.77
2022-12-11T20:27:05.192Z,22.13
2022-12-11T20:29:32.582Z,25.08
2022-12-11T20:32:00.550Z,21.60
2022-12-11T20:34:27.907Z,23.58
2022-12-11T20:36:58.803Z,23.40
2022-12-11T20:39:26.597Z,21.58
2022-12-11T20:41:53.483Z,22.77
2022-12-11T20:44:20.479Z,24.35
2022-12-11T20:46:53.338Z,20.55
2022-12-11T20:49:22.572Z,22.85
2022-12-11T20:51:52.421Z,22.55
2022-12-11T20:54:19.398Z,22.92
2022-12-11T20:56:48.844Z,22.95
2022-12-11T20:59:15.619Z,24.13
2022-12-11T21:01:45.016Z,24.58
2022-12-11T21:04:12.236Z,24.05
2022-12-11T21:06:40.673Z,22.20
2022-12-11T21:09:20.023Z,20.58
2022-12-11T21:11:46.819Z,23.52
2022-12-11T21:14:14.963Z,22.27
2022-12-11T21:16:42.312Z,21.33
2022-12-11T21:19:16.496Z,21.70
2022-12-11T21:21:46.878Z,21.02
2022-12-11T21:24:20.297Z,22.13
2022-12-11T21:26:49.960Z,20.00
2022-12-11T21:29:18.124Z,21.45
2022-12-11T21:34:14.603Z,20.10
2022-12-11T21:36:41.337Z,19.98
2022-12-11T21:39:12.469Z,18.73
2022-12-11T21:41:40.654Z,20.55
2022-12-11T21:46:59.321Z,20.30
2022-12-11T21:49:26.179Z,22.02
2022-12-11T21:51:52.889Z,20.33
2022-12-11T21:54:19.902Z,18.70
2022-12-11T21:56:47.088Z,20.92
2022-12-11T21:59:16.594Z,20.05
2022-12-11T22:01:48.251Z,19.88
2022-12-11T22:04:16.238Z,20.13
2022-12-11T22:06:43.807Z,21.33
2022-12-11T22:09:14.506Z,21.27
2022-12-11T22:11:42.518Z,20.25
2022-12-11T22:14:12.800Z,18.05
2022-12-11T22:16:40.998Z,18.05
2022-12-11T22:19:07.970Z,18.35
2022-12-11T22:21:34.983Z,19.45
2022-12-11T22:24:02.622Z,18.98
2022-12-11T22:26:29.880Z,19.85
2022-12-11T22:28:57.092Z,19.38
2022-12-11T22:31:25.951Z,18.73
2022-12-11T22:33:56.467Z,18.10
2022-12-11T22:36:26.077Z,17.85
2022-12-11T22:38:53.187Z,17.98
2022-12-11T22:41:22.603Z,16.02
2022-12-11T22:43:49.765Z,15.85
2022-12-11T22:46:25.738Z,16.33
2022-12-11T22:48:55.709Z,16.73
2022-12-11T22:51:25.432Z,16.17
2022-12-11T22:53:54.612Z,16.60
2022-12-11T22:56:21.331Z,15.27
2022-12-11T22:58:53.389Z,15.73
2022-12-11T23:01:22.786Z,17.95
2022-12-11T23:03:49.971Z,15.07
2022-12-11T23:06:22.578Z,15.63
2022-12-11T23:08:49.501Z,16.38
2022-12-11T23:11:17.849Z,17.35
2022-12-11T23:13:46.504Z,16.60
2022-12-11T23:16:13.345Z,17.65
2022-12-11T23:18:40.118Z,17.60
2022-12-11T23:21:07.822Z,18.88
2022-12-11T23:23:37.524Z,19.77
2022-12-11T23:26:05.667Z,17.40
2022-12-11T23:28:34.013Z,19.70
2022-12-11T23:31:03.494Z,17.40
2022-12-11T23:33:30.238Z,17.88
2022-12-11T23:36:03.842Z,18.58
2022-12-11T23:38:30.677Z,18.05
2022-12-11T23:40:59.993Z,17.58
2022-12-11T23:43:26.882Z,17.42
2022-12-11T23:45:53.727Z,18.67
2022-12-11T23:48:23.825Z,18.90
2022-12-11T23:50:50.782Z,17.57
2022-12-11T23:53:20.133Z,17.60
2022-12-11T23:55:47.048Z,17.38
2022-12-11T23:58:13.993Z,17.73
